Time;durP1;ratioP1;P1;durP2;ratioP2;P2;SDS_P1;SDS_P2;PMS_P1;PMS_P2;Temp;Humidity;BMP_temperature;BMP_pressure;BME280_temperature;BME280_humidity;BME280_pressure;Samples;Min_cycle;Max_cycle;Signal;HPM_P1;HPM_P2
2022/06/10 00:00:31;;;;;;;11.35;2.30;;;13.60;99.90;;;;;;4989616;28;20495;-84
2022/06/10 00:02:56;;;;;;;5.38;2.20;;;13.60;99.90;;;;;;4990547;28;20023;-85
2022/06/10 00:05:26;;;;;;;3.88;2.13;;;13.70;99.90;;;;;;4988619;28;20400;-84
2022/06/10 00:07:52;;;;;;;6.47;2.40;;;13.90;99.90;;;;;;4972771;28;20027;-84
2022/06/10 00:10:21;;;;;;;4.68;2.60;;;14.00;99.90;;;;;;4990277;28;20089;-84
2022/06/10 00:12:48;;;;;;;3.97;2.50;;;14.00;99.90;;;;;;4992738;28;20027;-84
2022/06/10 00:15:14;;;;;;;5.53;2.33;;;13.90;99.90;;;;;;4994539;28;20034;-84
2022/06/10 00:17:41;;;;;;;7.38;2.53;;;13.80;99.90;;;;;;4993798;28;20018;-84
2022/06/10 00:20:09;;;;;;;4.90;2.10;;;13.90;99.90;;;;;;4992622;28;20022;-84
2022/06/10 00:22:35;;;;;;;7.38;2.28;;;13.80;99.90;;;;;;4993642;28;20037;-84
2022/06/10 00:25:01;;;;;;;4.70;2.40;;;14.20;99.90;;;;;;4994286;28;20105;-84
2022/06/10 00:27:27;;;;;;;4.07;2.28;;;14.10;99.90;;;;;;4992326;28;20464;-85
2022/06/10 00:29:52;;;;;;;5.22;2.40;;;13.60;99.90;;;;;;4991338;28;20642;-84
2022/06/10 00:32:18;;;;;;;10.73;2.97;;;13.60;99.90;;;;;;4993353;28;20453;-85
2022/06/10 00:34:44;;;;;;;7.07;2.40;;;13.80;99.90;;;;;;4993298;28;20066;-85
2022/06/10 00:37:10;;;;;;;6.53;2.47;;;13.80;99.90;;;;;;4993206;28;20046;-84
2022/06/10 00:39:36;;;;;;;7.45;2.25;;;13.80;99.90;;;;;;4995491;28;20026;-85
2022/06/10 00:42:05;;;;;;;3.90;2.00;;;13.90;99.90;;;;;;4993423;28;20384;-84
2022/06/10 00:44:48;;;;;;;5.32;2.50;;;13.90;99.90;;;;;;4992320;28;20031;-84
2022/06/10 00:47:19;;;;;;;8.57;2.40;;;13.90;99.90;;;;;;4993255;28;20037;-85
2022/06/10 00:49:58;;;;;;;6.05;2.40;;;13.90;99.90;;;;;;4992380;28;20081;-84
2022/06/10 00:52:29;;;;;;;10.10;2.60;;;13.80;99.90;;;;;;4979273;28;20121;-84
2022/06/10 00:54:56;;;;;;;6.32;2.35;;;13.60;99.90;;;;;;4993837;28;20061;-84
2022/06/10 00:57:29;;;;;;;3.95;2.17;;;13.50;99.90;;;;;;4995094;28;20033;-84
2022/06/10 01:00:11;;;;;;;7.15;2.47;;;13.50;99.90;;;;;;4990489;28;20116;-84
2022/06/10 01:02:37;;;;;;;4.30;2.20;;;13.50;99.90;;;;;;4992780;28;20457;-84
2022/06/10 01:05:09;;;;;;;4.72;2.40;;;13.50;99.90;;;;;;4991373;28;20368;-84
2022/06/10 01:07:38;;;;;;;4.90;2.28;;;13.20;99.90;;;;;;4991241;28;20034;-84
2022/06/10 01:10:07;;;;;;;5.00;2.00;;;13.10;99.90;;;;;;4993795;28;20130;-84
2022/06/10 01:12:46;;;;;;;6.60;1.98;;;13.00;99.90;;;;;;4994219;28;20041;-84
2022/06/10 01:15:27;;;;;;;7.22;2.47;;;12.90;99.90;;;;;;4992208;28;20033;-84
2022/06/10 01:18:11;;;;;;;7.57;2.30;;;13.00;99.90;;;;;;4992809;28;20022;-84
2022/06/10 01:20:46;;;;;;;6.32;2.40;;;13.00;99.90;;;;;;4989922;28;20085;-84
2022/06/10 01:23:33;;;;;;;7.07;2.75;;;13.00;99.90;;;;;;4990707;28;20112;-84
2022/06/10 01:26:01;;;;;;;4.25;1.90;;;13.20;99.90;;;;;;4990817;28;20038;-84
2022/06/10 01:28:51;;;;;;;5.75;2.20;;;13.30;99.90;;;;;;4992805;28;20105;-84
2022/06/10 01:31:27;;;;;;;4.72;2.15;;;13.40;99.90;;;;;;4975856;28;20039;-84
2022/06/10 01:34:32;;;;;;;5.68;1.92;;;13.40;99.90;;;;;;4993379;28;20492;-84
2022/06/10 01:37:10;;;;;;;8.00;2.40;;;13.40;99.90;;;;;;4990791;28;20488;-84
2022/06/10 01:39:51;;;;;;;5.68;2.28;;;13.40;99.90;;;;;;4994046;28;20498;-83
2022/06/10 01:42:26;;;;;;;3.90;2.10;;;13.10;99.90;;;;;;4993170;28;20483;-85
2022/06/10 01:45:11;;;;;;;6.00;2.20;;;12.90;99.90;;;;;;4990063;28;20026;-84
2022/06/10 01:48:22;;;;;;;3.97;2.03;;;12.60;99.90;;;;;;4990800;28;20538;-84
2022/06/10 01:50:55;;;;;;;3.95;2.17;;;12.70;99.90;;;;;;4914111;29;20556;-84
2022/06/10 01:53:54;;;;;;;3.40;2.15;;;12.90;99.90;;;;;;4914568;29;20127;-84
2022/06/10 01:56:26;;;;;;;8.13;2.42;;;12.90;99.90;;;;;;4906468;29;20552;-84
2022/06/10 01:59:01;;;;;;;4.40;2.40;;;12.80;99.90;;;;;;4913508;29;20121;-84
2022/06/10 02:01:34;;;;;;;6.35;2.25;;;12.90;99.90;;;;;;4914731;29;20060;-84
2022/06/10 02:04:05;;;;;;;4.75;2.25;;;12.80;99.90;;;;;;4914229;29;20042;-84
2022/06/10 02:06:41;;;;;;;3.83;2.10;;;12.70;99.90;;;;;;4915079;29;20063;-84
2022/06/10 02:09:12;;;;;;;5.25;2.30;;;12.80;99.90;;;;;;4898517;29;20476;-83
2022/06/10 02:11:43;;;;;;;5.50;2.30;;;12.90;99.90;;;;;;4914312;29;20071;-84
2022/06/10 02:14:15;;;;;;;5.25;2.20;;;13.30;99.90;;;;;;4909075;29;20024;-83
2022/06/10 02:16:45;;;;;;;7.13;2.35;;;12.70;99.90;;;;;;4902851;29;20493;-84
2022/06/10 02:19:23;;;;;;;5.80;2.42;;;12.80;99.90;;;;;;4914064;29;20413;-84
2022/06/10 02:21:53;;;;;;;4.60;2.33;;;12.80;99.90;;;;;;4899212;29;20039;-84
2022/06/10 02:24:34;;;;;;;5.82;2.08;;;12.70;99.90;;;;;;4930769;28;20484;-84
2022/06/10 02:27:12;;;;;;;6.30;2.95;;;12.70;99.90;;;;;;4988737;28;20030;-84
2022/06/10 02:29:44;;;;;;;5.32;2.22;;;12.70;99.90;;;;;;4989500;28;20027;-84
2022/06/10 02:32:10;;;;;;;4.78;2.33;;;12.80;99.90;;;;;;4991505;28;20068;-85
2022/06/10 02:34:36;;;;;;;4.90;2.25;;;12.30;99.90;;;;;;4990617;28;20073;-84
2022/06/10 02:37:09;;;;;;;6.57;2.50;;;12.40;99.90;;;;;;4990380;28;20049;-84
2022/06/10 02:39:41;;;;;;;6.75;2.42;;;12.40;99.90;;;;;;4993328;28;20062;-84
2022/06/10 02:42:24;;;;;;;7.20;2.42;;;12.50;99.90;;;;;;4991298;28;20394;-84
2022/06/10 02:44:52;;;;;;;6.20;2.45;;;12.50;99.90;;;;;;4988426;28;20018;-84
2022/06/10 02:47:55;;;;;;;5.38;2.28;;;12.40;99.90;;;;;;4990823;28;20033;-84
2022/06/10 02:50:21;;;;;;;5.28;2.30;;;12.40;99.90;;;;;;4978546;28;20150;-84
2022/06/10 02:52:48;;;;;;;4.68;2.42;;;12.50;99.90;;;;;;4991141;28;20442;-84
2022/06/10 02:55:18;;;;;;;5.95;2.30;;;12.70;99.90;;;;;;4991245;28;20066;-84
2022/06/10 03:04:01;;;;;;;4.50;1.98;;;12.40;99.90;;;;;;4992570;28;20037;-84
2022/06/10 03:06:38;;;;;;;6.75;2.30;;;12.40;99.90;;;;;;4973897;28;20442;-84
2022/06/10 03:09:20;;;;;;;6.40;2.15;;;12.40;99.90;;;;;;4990924;28;20030;-84
2022/06/10 03:12:12;;;;;;;8.57;2.25;;;12.40;99.90;;;;;;4990827;28;20034;-84
2022/06/10 03:14:48;;;;;;;4.43;2.33;;;12.30;99.90;;;;;;4989344;28;20410;-84
2022/06/10 03:17:41;;;;;;;7.15;2.75;;;12.10;99.90;;;;;;4989018;28;20465;-84
2022/06/10 03:20:34;;;;;;;6.78;2.30;;;12.10;99.90;;;;;;4990940;28;20113;-84
2022/06/10 03:23:25;;;;;;;8.52;2.40;;;12.00;99.90;;;;;;4990935;28;20034;-84
2022/06/10 03:25:58;;;;;;;5.45;2.70;;;11.90;99.90;;;;;;4990657;28;20023;-83
2022/06/10 03:28:28;;;;;;;8.60;3.13;;;11.90;99.90;;;;;;4988855;28;20038;-84
2022/06/10 03:30:56;;;;;;;7.75;2.20;;;11.90;99.90;;;;;;4991172;28;20030;-84
2022/06/10 03:33:28;;;;;;;7.18;2.47;;;12.10;99.90;;;;;;4992358;28;20518;-84
2022/06/10 03:36:01;;;;;;;4.72;2.13;;;12.10;99.90;;;;;;4989568;28;20084;-84
2022/06/10 03:38:30;;;;;;;7.32;2.35;;;12.00;99.90;;;;;;4990553;28;20027;-84
2022/06/10 03:40:58;;;;;;;4.88;2.50;;;11.80;99.90;;;;;;4989435;28;20057;-83
2022/06/10 03:43:25;;;;;;;6.10;2.38;;;11.70;99.90;;;;;;4987410;28;20042;-84
2022/06/10 03:46:00;;;;;;;5.03;2.20;;;11.70;99.90;;;;;;4991402;28;20475;-83
2022/06/10 03:48:29;;;;;;;5.18;2.35;;;11.60;99.90;;;;;;4993705;28;20033;-84
2022/06/10 03:50:55;;;;;;;6.18;2.38;;;11.60;99.90;;;;;;4992213;28;20045;-83
2022/06/10 03:53:23;;;;;;;4.93;2.83;;;11.60;99.90;;;;;;4992330;28;20058;-84
2022/06/10 03:55:49;;;;;;;5.35;2.70;;;11.50;99.90;;;;;;4993857;28;20109;-83
2022/06/10 03:58:15;;;;;;;3.35;2.33;;;11.60;99.90;;;;;;4994254;28;20109;-84
2022/06/10 04:00:42;;;;;;;3.45;2.20;;;11.50;99.90;;;;;;4995052;28;20041;-84
2022/06/10 04:03:09;;;;;;;7.57;2.70;;;11.50;99.90;;;;;;4992994;28;20030;-83
2022/06/10 04:05:34;;;;;;;8.25;2.65;;;11.50;99.90;;;;;;4988541;28;20053;-83
2022/06/10 04:08:00;;;;;;;6.60;2.60;;;11.60;99.90;;;;;;4994273;28;20027;-84
2022/06/10 04:10:29;;;;;;;4.15;2.20;;;11.70;99.90;;;;;;4991909;28;20539;-84
2022/06/10 04:12:55;;;;;;;6.13;2.40;;;11.80;99.90;;;;;;4993652;28;20030;-83
2022/06/10 04:15:24;;;;;;;7.90;2.50;;;11.80;99.90;;;;;;4995043;28;20475;-84
2022/06/10 04:17:50;;;;;;;9.35;3.10;;;11.70;99.90;;;;;;4992263;28;20034;-84
2022/06/10 04:20:29;;;;;;;12.15;2.40;;;11.70;99.90;;;;;;4992580;28;20030;-84
2022/06/10 04:22:55;;;;;;;7.25;2.35;;;11.70;99.90;;;;;;4992776;28;20029;-84
2022/06/10 04:25:21;;;;;;;4.40;2.35;;;11.60;99.90;;;;;;4993827;28;20022;-83
2022/06/10 04:27:47;;;;;;;6.78;2.78;;;11.90;99.90;;;;;;4994262;28;20062;-84
2022/06/10 04:30:31;;;;;;;5.32;2.25;;;12.00;99.90;;;;;;4992670;28;20113;-84
2022/06/10 04:32:57;;;;;;;6.18;1.85;;;12.10;99.90;;;;;;4992429;28;20030;-84
2022/06/10 04:35:24;;;;;;;4.15;2.70;;;12.10;99.90;;;;;;4987508;28;20042;-84
2022/06/10 04:37:51;;;;;;;6.03;2.60;;;12.10;99.90;;;;;;4993340;28;20022;-84
2022/06/10 04:40:20;;;;;;;7.72;2.63;;;12.10;99.90;;;;;;4993362;28;20403;-84
2022/06/10 04:42:47;;;;;;;7.68;2.50;;;12.10;99.90;;;;;;4992964;28;20217;-84
2022/06/10 04:45:16;;;;;;;8.02;2.58;;;12.20;99.90;;;;;;4993460;28;20064;-84
2022/06/10 04:47:41;;;;;;;4.40;2.67;;;12.20;99.90;;;;;;4975943;28;20494;-84
2022/06/10 04:50:10;;;;;;;6.07;2.75;;;12.10;99.90;;;;;;4993345;28;20042;-84
2022/06/10 04:52:35;;;;;;;5.65;2.53;;;12.10;99.90;;;;;;4992955;28;20507;-84
2022/06/10 04:55:02;;;;;;;5.57;2.50;;;12.30;99.90;;;;;;4993312;28;20026;-84
2022/06/10 04:57:28;;;;;;;4.75;2.60;;;12.20;99.90;;;;;;4994354;28;20027;-84
2022/06/10 04:59:54;;;;;;;4.05;2.80;;;12.30;99.90;;;;;;4991609;28;20037;-83
2022/06/10 05:02:19;;;;;;;7.47;2.45;;;12.30;99.90;;;;;;4991373;28;20062;-84
2022/06/10 05:04:45;;;;;;;4.10;2.40;;;12.30;99.90;;;;;;4992348;28;20038;-84
2022/06/10 05:07:10;;;;;;;7.90;2.63;;;12.30;99.90;;;;;;4991803;28;20041;-86
2022/06/10 05:09:36;;;;;;;5.95;2.50;;;12.40;99.90;;;;;;4995009;28;20030;-85
2022/06/10 05:12:02;;;;;;;11.73;3.13;;;12.40;99.90;;;;;;4992581;28;20046;-85
2022/06/10 05:14:27;;;;;;;5.00;2.30;;;12.70;99.90;;;;;;4992693;28;20026;-86
2022/06/10 05:16:56;;;;;;;6.55;2.78;;;12.70;99.90;;;;;;4992893;28;20026;-85
2022/06/10 05:19:21;;;;;;;6.28;2.28;;;12.80;99.90;;;;;;4990973;28;20026;-88
2022/06/10 05:21:47;;;;;;;5.47;2.40;;;12.90;99.90;;;;;;4976552;28;20030;-87
2022/06/10 05:24:13;;;;;;;3.40;2.25;;;12.90;99.90;;;;;;4975557;28;20041;-90
2022/06/10 05:26:38;;;;;;;7.15;2.40;;;12.90;99.90;;;;;;4973140;28;20430;-86
2022/06/10 05:29:04;;;;;;;4.82;2.55;;;12.90;99.90;;;;;;4992463;28;20483;-86
2022/06/10 05:31:29;;;;;;;7.93;2.47;;;12.90;99.90;;;;;;4992706;28;20033;-86
2022/06/10 05:36:39;;;;;;;8.98;3.00;;;12.90;99.90;;;;;;4993239;28;20038;-86
2022/06/10 05:39:06;;;;;;;4.95;2.40;;;12.90;99.90;;;;;;4973656;28;20491;-86
2022/06/10 05:44:15;;;;;;;8.07;2.50;;;13.10;99.90;;;;;;4992377;28;20029;-86
2022/06/10 05:46:41;;;;;;;9.35;2.55;;;13.10;99.90;;;;;;4992319;28;20034;-86
2022/06/10 05:49:07;;;;;;;5.88;2.33;;;13.20;99.90;;;;;;4991669;28;20108;-85
2022/06/10 05:51:33;;;;;;;9.18;2.58;;;13.30;99.90;;;;;;4993136;28;20038;-86
2022/06/10 05:53:59;;;;;;;6.97;2.72;;;13.30;99.90;;;;;;4992209;28;20069;-86
2022/06/10 05:56:25;;;;;;;7.57;2.65;;;13.40;99.90;;;;;;4991634;28;20510;-86
2022/06/10 05:58:50;;;;;;;9.60;2.83;;;13.40;99.90;;;;;;4992139;28;20113;-86
2022/06/10 06:01:16;;;;;;;7.57;2.63;;;13.60;99.90;;;;;;4992179;28;20502;-86
2022/06/10 06:03:41;;;;;;;8.00;2.80;;;13.60;99.90;;;;;;4994229;28;20026;-86
2022/06/10 06:06:08;;;;;;;7.85;2.53;;;13.60;99.90;;;;;;4990979;28;20502;-86
2022/06/10 06:08:35;;;;;;;5.75;2.60;;;13.80;99.90;;;;;;4974451;28;20026;-86
2022/06/10 06:11:01;;;;;;;9.20;2.80;;;13.90;99.90;;;;;;4990733;28;20038;-86
2022/06/10 06:13:26;;;;;;;7.15;2.65;;;14.00;99.90;;;;;;4991829;28;20510;-86
2022/06/10 06:15:52;;;;;;;8.52;3.00;;;14.10;99.90;;;;;;4992610;28;20494;-86
2022/06/10 06:18:18;;;;;;;5.53;2.85;;;14.30;99.90;;;;;;4991517;28;20033;-86
2022/06/10 06:20:43;;;;;;;8.50;3.10;;;14.30;99.90;;;;;;4990029;28;20034;-86
2022/06/10 06:23:09;;;;;;;8.65;2.63;;;14.30;99.90;;;;;;4973579;28;20105;-86
2022/06/10 06:25:34;;;;;;;11.30;2.90;;;14.50;99.90;;;;;;4991395;28;20034;-85
2022/06/10 06:28:00;;;;;;;6.78;2.63;;;14.60;99.90;;;;;;4991689;28;20418;-86
2022/06/10 06:30:32;;;;;;;9.88;2.60;;;14.60;99.90;;;;;;4991636;28;20034;-86
2022/06/10 06:33:01;;;;;;;8.00;2.90;;;14.60;99.90;;;;;;4973847;28;20038;-86
2022/06/10 06:35:26;;;;;;;7.43;3.00;;;14.70;99.90;;;;;;4991393;28;20023;-86
2022/06/10 06:37:55;;;;;;;8.60;3.30;;;14.70;99.90;;;;;;4992358;28;20026;-86
2022/06/10 06:40:21;;;;;;;7.28;3.08;;;14.80;99.90;;;;;;4993339;28;20026;-85
2022/06/10 06:42:47;;;;;;;7.30;2.85;;;14.80;99.90;;;;;;4993120;28;20034;-86
2022/06/10 06:45:14;;;;;;;7.70;2.95;;;14.90;99.90;;;;;;4988081;28;20368;-86
2022/06/10 06:47:40;;;;;;;8.82;3.28;;;14.90;99.90;;;;;;4990382;28;20081;-86
2022/06/10 06:50:07;;;;;;;8.45;3.10;;;15.00;99.90;;;;;;4991257;28;20034;-86
2022/06/10 06:52:33;;;;;;;5.40;2.22;;;15.00;99.90;;;;;;4991093;28;20068;-87
2022/06/10 06:54:59;;;;;;;5.97;2.30;;;15.00;99.90;;;;;;4991154;28;20027;-86
2022/06/10 06:57:25;;;;;;;8.85;2.88;;;14.90;99.90;;;;;;4991115;28;20033;-86
2022/06/10 06:59:53;;;;;;;6.07;2.70;;;15.10;99.90;;;;;;4971664;28;20030;-85
2022/06/10 07:02:19;;;;;;;7.55;2.75;;;15.10;99.90;;;;;;4990196;28;20026;-86
2022/06/10 07:04:45;;;;;;;6.60;3.13;;;15.20;99.90;;;;;;4973793;28;20037;-86
2022/06/10 07:07:11;;;;;;;5.57;2.78;;;15.30;99.90;;;;;;4973833;28;20023;-86
2022/06/10 07:09:37;;;;;;;9.18;3.00;;;15.40;99.90;;;;;;4975249;28;20058;-86
2022/06/10 07:12:03;;;;;;;8.95;3.55;;;15.40;99.90;;;;;;4989910;28;20529;-86
2022/06/10 07:14:28;;;;;;;10.43;2.95;;;15.50;99.90;;;;;;4990704;28;20101;-86
2022/06/10 07:16:54;;;;;;;10.05;3.05;;;15.60;99.90;;;;;;4972766;28;20124;-86
2022/06/10 07:19:21;;;;;;;8.95;2.40;;;15.70;99.90;;;;;;4989965;28;20038;-86
2022/06/10 07:21:46;;;;;;;6.25;2.80;;;15.70;99.90;;;;;;4992593;28;20084;-86
2022/06/10 07:24:12;;;;;;;7.90;2.50;;;15.80;99.90;;;;;;4995471;28;20491;-86
2022/06/10 07:26:38;;;;;;;8.98;2.40;;;15.90;99.90;;;;;;4992677;28;20061;-86
2022/06/10 07:29:04;;;;;;;6.57;2.30;;;16.00;99.90;;;;;;4978053;28;20656;-86
2022/06/10 07:31:30;;;;;;;7.78;2.30;;;16.00;99.90;;;;;;4976721;28;20042;-86
2022/06/10 07:33:57;;;;;;;9.02;2.67;;;16.00;99.90;;;;;;4976762;28;20046;-87
2022/06/10 07:36:23;;;;;;;7.32;2.42;;;16.20;99.90;;;;;;4977145;28;20035;-87
2022/06/10 07:38:49;;;;;;;4.38;2.10;;;16.50;99.90;;;;;;4992750;28;20015;-86
2022/06/10 07:44:20;;;;;;;6.20;2.25;;;16.40;99.90;;;;;;4914363;29;20024;-86
2022/06/10 07:46:47;;;;;;;5.63;2.15;;;16.70;99.90;;;;;;4916029;29;20072;-86
2022/06/10 07:49:12;;;;;;;6.47;2.50;;;16.80;99.90;;;;;;4913927;29;20040;-86
2022/06/10 07:51:38;;;;;;;6.05;2.08;;;16.70;99.90;;;;;;4916665;29;20091;-87
2022/06/10 07:54:04;;;;;;;3.92;1.83;;;16.90;99.90;;;;;;4915823;29;20039;-87
2022/06/10 07:56:30;;;;;;;8.50;2.17;;;17.20;99.90;;;;;;4915682;29;20028;-86
2022/06/10 07:58:58;;;;;;;4.55;2.10;;;17.30;99.90;;;;;;4915746;29;20036;-87
2022/06/10 08:01:25;;;;;;;5.80;2.17;;;17.30;99.90;;;;;;4915961;29;20051;-87
2022/06/10 08:03:50;;;;;;;6.38;2.15;;;17.30;99.90;;;;;;4915717;29;20032;-87
2022/06/10 08:06:18;;;;;;;6.10;2.15;;;17.30;99.90;;;;;;4900919;29;20036;-87
2022/06/10 08:08:44;;;;;;;7.28;2.10;;;17.20;99.90;;;;;;4913916;29;20371;-87
2022/06/10 08:11:09;;;;;;;9.90;2.45;;;17.20;99.90;;;;;;4914475;29;20036;-86
2022/06/10 08:13:35;;;;;;;5.10;2.10;;;17.60;99.90;;;;;;4915605;29;20040;-87
2022/06/10 08:16:01;;;;;;;6.03;2.28;;;17.70;99.90;;;;;;4915056;29;20133;-87
2022/06/10 08:18:30;;;;;;;6.30;2.20;;;17.50;99.90;;;;;;4951019;28;20079;-87
2022/06/10 08:23:41;;;;;;;6.45;2.58;;;17.70;99.90;;;;;;4995252;28;20046;-86
2022/06/10 08:26:08;;;;;;;5.82;2.30;;;17.80;99.90;;;;;;4993764;28;20037;-87
2022/06/10 08:28:36;;;;;;;2.65;1.85;;;17.90;99.90;;;;;;4993726;28;20030;-87
2022/06/10 08:31:02;;;;;;;7.00;2.20;;;17.90;99.90;;;;;;4993593;28;20026;-87
2022/06/10 08:33:28;;;;;;;9.63;2.38;;;18.00;99.90;;;;;;4993563;28;20510;-87
2022/06/10 08:35:53;;;;;;;6.07;2.42;;;18.20;99.90;;;;;;4993280;28;20022;-86
2022/06/10 08:38:19;;;;;;;10.50;2.45;;;18.30;99.90;;;;;;4993598;28;20026;-87
2022/06/10 08:41:14;;;;;;;7.40;2.10;;;18.50;99.90;;;;;;4976344;28;20036;-87
2022/06/10 08:43:54;;;;;;;6.03;2.20;;;18.30;99.90;;;;;;4981623;28;20483;-87
2022/06/10 08:46:58;;;;;;;5.03;2.03;;;18.20;99.90;;;;;;4976896;28;20034;-87
2022/06/10 08:49:29;;;;;;;5.18;2.05;;;18.30;99.90;;;;;;4984410;28;20023;-86
2022/06/10 08:52:35;;;;;;;4.60;1.80;;;18.40;99.90;;;;;;4994618;28;20042;-87
2022/06/10 08:55:23;;;;;;;3.38;2.00;;;18.70;99.90;;;;;;4990535;28;20030;-87
2022/06/10 08:57:49;;;;;;;6.13;1.92;;;18.70;99.90;;;;;;4991613;28;20093;-87
2022/06/10 09:00:40;;;;;;;6.43;2.13;;;18.80;99.90;;;;;;4994010;28;20483;-87
2022/06/10 09:03:06;;;;;;;10.18;2.78;;;19.10;99.90;;;;;;4992004;28;20081;-87
2022/06/10 09:05:43;;;;;;;6.43;2.15;;;19.10;99.90;;;;;;4992987;28;20019;-87
2022/06/10 09:08:27;;;;;;;4.88;1.75;;;19.10;99.90;;;;;;4992922;28;20491;-87
2022/06/10 09:11:06;;;;;;;7.07;2.05;;;19.40;99.90;;;;;;4975536;28;20042;-87
2022/06/10 09:13:50;;;;;;;8.23;1.85;;;19.60;99.90;;;;;;4975791;28;20569;-87
2022/06/10 09:16:48;;;;;;;6.45;2.00;;;19.80;99.90;;;;;;4977101;28;20027;-87
2022/06/10 09:19:29;;;;;;;5.03;1.73;;;19.70;99.90;;;;;;4992145;28;20026;-87
2022/06/10 09:22:00;;;;;;;3.42;1.48;;;19.70;99.90;;;;;;4991367;28;20434;-87
2022/06/10 09:24:48;;;;;;;6.93;1.70;;;19.60;99.90;;;;;;4975721;28;20030;-87
2022/06/10 09:27:23;;;;;;;5.75;1.40;;;19.90;99.90;;;;;;4992173;28;20042;-87
2022/06/10 09:29:48;;;;;;;4.15;1.50;;;20.00;99.90;;;;;;4991154;28;20113;-87
2022/06/10 09:32:39;;;;;;;6.32;1.60;;;20.20;99.90;;;;;;4991369;28;20559;-87
2022/06/10 09:35:13;;;;;;;4.22;1.35;;;20.20;99.90;;;;;;4990548;28;20070;-87
2022/06/10 09:38:08;;;;;;;4.35;1.58;;;20.30;99.90;;;;;;4992577;28;20030;-87
2022/06/10 09:40:41;;;;;;;4.75;1.48;;;20.30;99.90;;;;;;4918753;29;20127;-87
2022/06/10 09:43:21;;;;;;;3.15;1.50;;;20.30;99.90;;;;;;4932816;29;20047;-87
2022/06/10 09:45:46;;;;;;;3.22;1.15;;;20.40;99.90;;;;;;4933020;29;20564;-87
2022/06/10 09:48:46;;;;;;;3.28;1.40;;;20.40;99.90;;;;;;4932923;29;20118;-87
2022/06/10 09:51:20;;;;;;;4.85;1.33;;;20.40;99.90;;;;;;4932404;29;20513;-87
2022/06/10 09:53:57;;;;;;;4.63;1.65;;;20.50;99.90;;;;;;4932505;29;20031;-86
2022/06/10 09:56:58;;;;;;;4.15;1.50;;;20.80;99.90;;;;;;4931309;29;20552;-87
2022/06/10 09:59:31;;;;;;;5.05;1.55;;;21.00;99.90;;;;;;4932547;29;20157;-87
2022/06/10 10:01:57;;;;;;;4.57;1.85;;;21.10;99.90;;;;;;4931366;29;20501;-87
2022/06/10 10:04:32;;;;;;;4.93;1.60;;;20.90;99.90;;;;;;4930962;29;20050;-87
2022/06/10 10:07:45;;;;;;;5.95;1.40;;;20.90;99.90;;;;;;4932210;29;20102;-87
2022/06/10 10:10:29;;;;;;;4.05;1.23;;;21.10;99.90;;;;;;4880591;29;20059;-87
2022/06/10 10:13:17;;;;;;;2.97;1.27;;;21.10;99.90;;;;;;4893187;29;20504;-87
2022/06/10 10:15:48;;;;;;;2.95;1.40;;;21.30;99.90;;;;;;4880426;29;20036;-86
2022/06/10 10:18:33;;;;;;;6.25;1.90;;;21.30;99.90;;;;;;4905890;29;20520;-87
2022/06/10 10:21:02;;;;;;;3.20;1.30;;;21.30;99.90;;;;;;4912757;29;20176;-87
2022/06/10 10:23:35;;;;;;;2.45;1.20;;;21.40;99.90;;;;;;4912792;29;20474;-87
2022/06/10 10:26:05;;;;;;;3.17;1.33;;;21.50;99.90;;;;;;4912778;29;20035;-87
2022/06/10 10:28:38;;;;;;;3.85;1.30;;;21.40;99.90;;;;;;4898329;29;20165;-87
2022/06/10 10:31:24;;;;;;;5.25;1.52;;;21.50;99.90;;;;;;4896442;29;20052;-87
2022/06/10 10:33:51;;;;;;;3.70;1.33;;;21.70;99.90;;;;;;4909642;29;20056;-87
2022/06/10 10:36:40;;;;;;;4.40;1.70;;;21.70;99.90;;;;;;4911351;29;20024;-87
2022/06/10 10:39:25;;;;;;;3.95;1.60;;;21.80;99.90;;;;;;4903868;29;20036;-87
2022/06/10 10:41:53;;;;;;;3.50;1.42;;;21.90;99.90;;;;;;4910314;29;20034;-87
2022/06/10 10:44:33;;;;;;;3.35;1.40;;;22.00;99.90;;;;;;4911548;29;20028;-87
2022/06/10 10:47:13;;;;;;;4.80;1.52;;;21.90;99.90;;;;;;4969100;28;20038;-87
2022/06/10 10:49:50;;;;;;;3.28;1.58;;;21.80;99.90;;;;;;4992346;28;20026;-87
2022/06/10 10:52:25;;;;;;;4.35;1.60;;;21.80;99.90;;;;;;4981365;28;20061;-87
2022/06/10 10:55:14;;;;;;;6.55;1.58;;;22.00;99.90;;;;;;4991694;28;20480;-87
2022/06/10 10:57:51;;;;;;;3.00;1.20;;;22.10;99.90;;;;;;4985112;28;20092;-87
2022/06/10 11:00:16;;;;;;;4.07;1.48;;;22.00;99.90;;;;;;4991763;28;20165;-87
2022/06/10 11:02:49;;;;;;;5.97;1.38;;;22.00;99.90;;;;;;4973931;28;20505;-87
2022/06/10 11:05:20;;;;;;;6.95;1.75;;;22.20;99.90;;;;;;4967548;28;20121;-87
2022/06/10 11:07:46;;;;;;;4.43;1.67;;;22.20;99.90;;;;;;4972970;28;20018;-87
2022/06/10 11:10:22;;;;;;;3.83;1.30;;;22.20;99.90;;;;;;4985290;28;20527;-86
2022/06/10 11:12:48;;;;;;;4.03;1.50;;;22.40;99.90;;;;;;4986945;28;20049;-87
2022/06/10 11:15:28;;;;;;;3.45;1.63;;;22.50;99.90;;;;;;4990976;28;20161;-87
2022/06/10 11:17:56;;;;;;;3.50;1.35;;;22.60;99.90;;;;;;4990916;28;20028;-87
2022/06/10 11:20:27;;;;;;;5.40;1.50;;;22.50;99.90;;;;;;4990750;28;20026;-87
2022/06/10 11:23:09;;;;;;;3.85;1.40;;;22.70;99.90;;;;;;4990901;28;20022;-87
2022/06/10 11:25:35;;;;;;;4.40;1.30;;;22.90;99.90;;;;;;4990878;28;20053;-87
2022/06/10 11:28:16;;;;;;;2.67;1.48;;;22.70;99.90;;;;;;4990497;28;20022;-87
2022/06/10 11:30:48;;;;;;;4.70;1.58;;;22.50;99.90;;;;;;4970015;28;20034;-86
2022/06/10 11:33:43;;;;;;;5.22;1.58;;;22.60;99.90;;;;;;4974807;28;20495;-86
2022/06/10 11:36:13;;;;;;;4.38;1.60;;;22.90;99.90;;;;;;4988876;28;20395;-87
2022/06/10 11:38:51;;;;;;;4.10;1.48;;;22.90;99.90;;;;;;4990550;28;20399;-87
2022/06/10 11:41:30;;;;;;;4.07;1.50;;;22.90;99.90;;;;;;4990564;28;20022;-87
2022/06/10 11:44:06;;;;;;;4.25;1.65;;;22.90;99.90;;;;;;4990383;28;20504;-87
2022/06/10 11:46:43;;;;;;;3.65;1.45;;;23.20;99.90;;;;;;4990741;28;20022;-87
2022/06/10 11:49:40;;;;;;;4.00;1.60;;;23.20;99.90;;;;;;4989821;28;21238;-87
2022/06/10 11:52:22;;;;;;;3.15;1.40;;;23.30;99.90;;;;;;4983606;28;20423;-87
2022/06/10 11:55:03;;;;;;;5.78;1.80;;;23.70;99.90;;;;;;4988798;28;20054;-87
2022/06/10 12:00:34;;;;;;;3.13;1.45;;;24.10;99.90;;;;;;4991378;28;20037;-87
2022/06/10 12:03:00;;;;;;;5.40;1.55;;;25.20;99.90;;;;;;4990537;28;20138;-87
2022/06/10 12:05:46;;;;;;;6.25;1.67;;;27.50;99.90;;;;;;4988619;28;20023;-88
2022/06/10 12:08:36;;;;;;;3.08;1.50;;;29.40;99.90;;;;;;4988787;28;20566;-87
2022/06/10 12:11:21;;;;;;;6.90;1.70;;;30.70;99.90;;;;;;4991574;28;20073;-87
2022/06/10 12:14:02;;;;;;;2.95;1.38;;;31.70;99.90;;;;;;4993817;28;20057;-87
2022/06/10 12:16:30;;;;;;;4.80;1.73;;;32.20;99.90;;;;;;4991716;28;20463;-87
2022/06/10 12:18:58;;;;;;;2.72;1.40;;;32.20;99.90;;;;;;4994412;28;20034;-88
2022/06/10 12:21:25;;;;;;;4.82;1.70;;;32.90;99.90;;;;;;4995873;28;20029;-87
2022/06/10 12:23:52;;;;;;;3.78;1.65;;;33.30;99.90;;;;;;4993770;28;20040;-88
2022/06/10 12:26:46;;;;;;;2.33;1.50;;;34.20;99.90;;;;;;4993735;28;20010;-87
2022/06/10 12:29:47;;;;;;;4.88;1.90;;;34.60;99.90;;;;;;4992443;28;20065;-88
2022/06/10 12:32:40;;;;;;;3.88;1.58;;;34.90;99.90;;;;;;4992339;28;20503;-87
2022/06/10 12:35:21;;;;;;;3.03;1.60;;;34.50;99.90;;;;;;4993380;28;20089;-88
2022/06/10 12:37:59;;;;;;;3.08;1.55;;;35.10;99.90;;;;;;4993724;28;20080;-87
2022/06/10 12:40:31;;;;;;;3.40;1.58;;;35.00;99.90;;;;;;4962569;28;20072;-88
2022/06/10 12:43:00;;;;;;;4.03;1.50;;;34.30;99.90;;;;;;4993724;28;20037;-88
2022/06/10 12:45:40;;;;;;;8.88;2.10;;;33.90;99.90;;;;;;4992701;28;20080;-88
2022/06/10 12:48:42;;;;;;;3.30;1.30;;;33.60;99.90;;;;;;4992180;28;20479;-88
2022/06/10 12:51:11;;;;;;;4.93;1.70;;;34.20;99.90;;;;;;4991936;28;20034;-87
2022/06/10 12:53:49;;;;;;;1.88;1.30;;;33.80;99.90;;;;;;4976150;28;20376;-88
2022/06/10 12:56:27;;;;;;;3.97;1.58;;;33.10;99.90;;;;;;4975633;28;20085;-87
2022/06/10 12:59:09;;;;;;;4.47;1.40;;;33.70;99.90;;;;;;4992012;28;20150;-88
2022/06/10 13:01:35;;;;;;;2.22;1.42;;;33.80;99.90;;;;;;4993264;28;20491;-88
2022/06/10 13:04:23;;;;;;;2.70;1.23;;;33.60;99.90;;;;;;4993233;28;20029;-88
2022/06/10 13:06:56;;;;;;;2.28;1.40;;;33.60;99.90;;;;;;4912779;29;20040;-87
2022/06/10 13:09:36;;;;;;;6.13;1.30;;;32.20;99.90;;;;;;4915586;29;20040;-88
2022/06/10 13:12:07;;;;;;;3.80;1.58;;;32.90;99.90;;;;;;4915147;29;20540;-87
2022/06/10 13:14:36;;;;;;;2.95;1.40;;;33.00;99.90;;;;;;4910890;29;20028;-88
2022/06/10 13:17:20;;;;;;;3.42;1.30;;;33.30;99.90;;;;;;4914108;29;20490;-88
2022/06/10 13:19:54;;;;;;;2.58;1.38;;;32.40;99.90;;;;;;4913333;29;20509;-88
2022/06/10 13:22:20;;;;;;;5.00;1.50;;;31.00;99.90;;;;;;4901181;29;20068;-88
2022/06/10 13:24:54;;;;;;;5.18;1.50;;;31.90;99.90;;;;;;4915419;29;20572;-88
2022/06/10 13:27:40;;;;;;;4.57;1.63;;;31.70;99.90;;;;;;4912998;29;20041;-88
2022/06/10 13:30:14;;;;;;;4.18;1.40;;;31.40;99.90;;;;;;4914333;29;20557;-88
2022/06/10 13:32:42;;;;;;;3.90;1.38;;;31.50;99.90;;;;;;4913038;29;20166;-88
2022/06/10 13:35:13;;;;;;;3.10;1.58;;;30.70;99.90;;;;;;4911945;29;20051;-87